createdAt,value
2022-09-26T00:04:38.706Z,2.94
2022-09-26T00:09:45.216Z,2.77
2022-09-26T00:14:51.563Z,2.92
2022-09-26T00:19:58.724Z,3.08
2022-09-26T00:25:04.943Z,2.91
2022-09-26T00:30:11.074Z,3.07
2022-09-26T00:35:17.389Z,2.99
2022-09-26T00:40:24.085Z,2.93
2022-09-26T00:45:30.485Z,3.17
2022-09-26T00:50:36.549Z,2.70
2022-09-26T00:55:43.381Z,3.12
2022-09-26T01:00:49.693Z,3.00
2022-09-26T01:05:55.927Z,3.46
2022-09-26T01:11:02.165Z,3.22
2022-09-26T01:16:08.568Z,3.19
2022-09-26T01:21:14.709Z,3.38
2022-09-26T01:26:21.396Z,2.98
2022-09-26T01:31:27.548Z,2.96
2022-09-26T01:36:33.941Z,3.44
2022-09-26T01:41:40.151Z,3.58
2022-09-26T01:46:46.409Z,3.42
2022-09-26T01:51:52.888Z,3.20
2022-09-26T01:56:59.159Z,3.31
2022-09-26T02:02:05.378Z,3.31
2022-09-26T02:07:12.025Z,3.47
2022-09-26T02:12:18.466Z,3.22
2022-09-26T02:17:24.903Z,3.52
2022-09-26T02:22:31.067Z,3.69
2022-09-26T02:27:37.383Z,3.68
2022-09-26T02:32:43.463Z,3.91
2022-09-26T02:37:49.988Z,3.86
2022-09-26T02:42:56.214Z,3.93
2022-09-26T02:48:02.713Z,3.67
2022-09-26T02:53:08.757Z,4.17
2022-09-26T02:58:15.040Z,3.79
2022-09-26T03:03:21.348Z,4.05
2022-09-26T03:08:27.520Z,4.04
2022-09-26T03:13:33.680Z,4.12
2022-09-26T03:18:40.253Z,3.86
2022-09-26T03:23:46.383Z,3.73
2022-09-26T03:28:52.593Z,3.33
2022-09-26T03:33:58.899Z,3.27
2022-09-26T03:39:05.210Z,3.75
2022-09-26T03:44:11.281Z,3.42
2022-09-26T03:49:17.517Z,3.78
2022-09-26T03:54:23.813Z,3.56
2022-09-26T03:59:30.444Z,3.93
2022-09-26T04:04:36.625Z,3.88
2022-09-26T04:09:42.969Z,4.06
2022-09-26T04:14:49.081Z,4.12
2022-09-26T04:19:55.316Z,4.50
2022-09-26T04:25:01.455Z,4.29
2022-09-26T04:30:08.094Z,4.08
2022-09-26T04:35:15.026Z,4.37
2022-09-26T04:40:21.511Z,4.49
2022-09-26T04:45:27.698Z,4.56
2022-09-26T04:50:34.086Z,4.62
2022-09-26T04:55:40.188Z,5.26
2022-09-26T05:00:46.511Z,4.83
2022-09-26T05:05:52.576Z,5.06
2022-09-26T05:10:58.774Z,4.99
2022-09-26T05:16:04.960Z,5.19
2022-09-26T05:21:11.353Z,5.29
2022-09-26T05:26:17.438Z,4.72
2022-09-26T05:31:23.655Z,4.81
2022-09-26T05:36:30.216Z,4.92
2022-09-26T05:41:37.321Z,5.47
2022-09-26T05:46:43.421Z,5.14
2022-09-26T05:51:49.664Z,5.62
2022-09-26T05:56:55.766Z,5.36
2022-09-26T06:02:02.239Z,6.11
2022-09-26T06:07:08.217Z,6.08
2022-09-26T06:12:14.466Z,6.67
2022-09-26T06:17:20.753Z,7.24
2022-09-26T06:22:26.953Z,7.24
2022-09-26T06:27:34.294Z,7.08
2022-09-26T06:32:40.473Z,7.32
2022-09-26T06:37:47.001Z,7.26
2022-09-26T06:42:53.220Z,7.48
2022-09-26T06:47:59.787Z,7.96
2022-09-26T06:53:13.439Z,7.71
2022-09-26T06:58:11.929Z,7.99
2022-09-26T07:03:18.231Z,7.19
2022-09-26T07:08:43.371Z,7.49
2022-09-26T07:13:30.178Z,7.06
2022-09-26T07:18:36.352Z,7.62
2022-09-26T07:23:42.564Z,6.83
2022-09-26T07:28:53.652Z,6.59
2022-09-26T07:33:54.516Z,6.55
2022-09-26T07:39:00.613Z,6.17
2022-09-26T07:49:12.611Z,5.58
2022-09-26T07:54:18.895Z,5.75
2022-09-26T07:59:25.140Z,6.04
2022-09-26T08:04:31.454Z,5.46
2022-09-26T08:09:37.581Z,4.96
2022-09-26T08:14:43.880Z,5.22
2022-09-26T08:19:50.103Z,4.79
2022-09-26T08:24:56.312Z,4.68
2022-09-26T08:30:02.458Z,4.99
2022-09-26T08:35:08.707Z,4.54
2022-09-26T08:40:14.836Z,4.60
2022-09-26T08:45:21.016Z,4.69
2022-09-26T08:50:27.107Z,4.99
2022-09-26T08:55:33.285Z,4.35
2022-09-26T09:00:39.389Z,4.68
2022-09-26T09:05:45.646Z,5.18
2022-09-26T09:10:51.862Z,4.51
2022-09-26T09:15:58.221Z,4.76
2022-09-26T09:21:04.273Z,4.89
2022-09-26T09:31:27.625Z,4.72
2022-09-26T09:36:34.237Z,4.56
2022-09-26T09:41:40.329Z,4.71
2022-09-26T09:46:46.804Z,4.75
2022-09-26T09:51:52.954Z,4.56
2022-09-26T09:56:59.198Z,4.47
2022-09-26T10:02:07.247Z,4.79
2022-09-26T10:07:13.425Z,4.69
2022-09-26T10:12:19.474Z,4.70
2022-09-26T10:17:25.709Z,4.56
2022-09-26T10:22:31.769Z,4.53
2022-09-26T10:27:38.172Z,5.11
2022-09-26T10:32:44.086Z,5.18
2022-09-26T10:37:50.417Z,4.86
2022-09-26T10:42:56.498Z,5.01
2022-09-26T10:48:02.831Z,5.52
2022-09-26T10:53:08.902Z,4.79
2022-09-26T10:58:15.439Z,4.97
2022-09-26T11:03:21.480Z,4.70
2022-09-26T11:08:27.800Z,5.47
2022-09-26T11:13:33.925Z,5.10
2022-09-26T11:18:40.166Z,5.45
2022-09-26T11:23:46.229Z,5.42
2022-09-26T11:28:52.372Z,6.18
2022-09-26T11:33:59.009Z,6.49
2022-09-26T11:39:05.465Z,6.32
2022-09-26T11:44:11.555Z,6.14
2022-09-26T11:49:17.968Z,6.93
2022-09-26T11:54:24.111Z,6.39
2022-09-26T11:59:30.329Z,6.86
2022-09-26T12:04:36.741Z,6.82
2022-09-26T12:09:43.371Z,6.32
2022-09-26T12:14:49.826Z,6.61
2022-09-26T12:19:56.939Z,6.87
2022-09-26T12:25:03.222Z,6.39
2022-09-26T12:30:09.521Z,6.14
2022-09-26T12:35:15.493Z,6.43
2022-09-26T12:40:21.789Z,6.22
2022-09-26T12:45:27.933Z,5.88
2022-09-26T12:50:34.260Z,5.99
2022-09-26T12:55:40.370Z,5.63
2022-09-26T13:00:46.599Z,5.63
2022-09-26T13:05:52.825Z,6.15
2022-09-26T13:10:58.998Z,5.48
2022-09-26T13:16:08.145Z,5.50
2022-09-26T13:21:13.770Z,5.55
2022-09-26T13:26:20.629Z,5.03
2022-09-26T13:31:31.828Z,5.21
2022-09-26T13:36:34.521Z,5.29
2022-09-26T13:41:41.011Z,4.69
2022-09-26T13:46:47.508Z,4.46
2022-09-26T13:51:54.368Z,4.46
2022-09-26T13:57:00.535Z,4.60
2022-09-26T14:02:07.791Z,4.74
2022-09-26T14:07:13.913Z,4.42
2022-09-26T14:12:20.122Z,4.62
2022-09-26T14:17:26.154Z,4.68
2022-09-26T14:22:32.330Z,4.99
2022-09-26T14:27:38.405Z,4.96
2022-09-26T14:32:44.832Z,5.95
2022-09-26T14:37:51.004Z,6.07
2022-09-26T14:42:57.540Z,5.75
2022-09-26T14:48:03.744Z,5.96
2022-09-26T14:53:10.028Z,6.37
2022-09-26T14:58:16.920Z,6.75
2022-09-26T15:03:23.371Z,6.97
2022-09-26T15:08:29.724Z,7.31
2022-09-26T15:13:35.990Z,7.25
2022-09-26T15:18:42.118Z,7.34
2022-09-26T15:23:48.345Z,7.12
2022-09-26T15:28:54.405Z,6.85
2022-09-26T15:34:01.081Z,7.14
2022-09-26T15:39:07.298Z,6.79
2022-09-26T15:44:13.648Z,6.84
2022-09-26T15:49:19.900Z,6.07
2022-09-26T15:54:26.070Z,5.91
2022-09-26T15:59:32.192Z,5.66
2022-09-26T16:04:38.526Z,5.26
2022-09-26T16:09:44.871Z,5.26
2022-09-26T16:14:51.339Z,4.61
2022-09-26T16:19:57.598Z,4.49
2022-09-26T16:25:04.072Z,4.29
2022-09-26T16:30:11.045Z,4.67
2022-09-26T16:35:17.303Z,4.25
2022-09-26T16:40:23.542Z,4.58
2022-09-26T16:45:29.819Z,4.54
2022-09-26T16:50:36.037Z,4.21
2022-09-26T16:55:42.718Z,4.47
2022-09-26T17:00:52.326Z,4.92
2022-09-26T17:05:55.011Z,4.64
2022-09-26T17:11:01.483Z,4.71
2022-09-26T17:16:07.900Z,4.43
2022-09-26T17:21:13.882Z,4.33
2022-09-26T17:26:20.078Z,4.53
2022-09-26T17:31:26.227Z,4.28
2022-09-26T17:36:32.769Z,3.93
2022-09-26T17:41:39.334Z,4.32
2022-09-26T17:46:45.540Z,4.38
2022-09-26T17:51:51.966Z,5.07
2022-09-26T17:57:41.780Z,5.27
2022-09-26T18:02:45.352Z,5.51
2022-09-26T18:07:51.709Z,5.91
2022-09-26T18:12:57.936Z,5.49
2022-09-26T18:18:04.206Z,6.59
2022-09-26T18:23:10.404Z,6.69
2022-09-26T18:28:16.619Z,6.41
2022-09-26T18:33:22.792Z,6.87
2022-09-26T18:38:28.945Z,6.87
2022-09-26T18:43:40.438Z,7.25
2022-09-26T18:48:41.320Z,7.45
2022-09-26T18:53:47.532Z,8.04
2022-09-26T18:58:54.014Z,8.86
2022-09-26T19:04:00.447Z,7.88
2022-09-26T19:09:06.773Z,8.39
2022-09-26T19:14:13.085Z,7.89
2022-09-26T19:19:19.361Z,9.04
2022-09-26T19:24:29.726Z,8.91
2022-09-26T19:29:25.914Z,9.37
2022-09-26T19:34:32.913Z,8.68
2022-09-26T19:39:38.255Z,9.52
2022-09-26T19:44:44.372Z,9.99
2022-09-26T19:49:50.760Z,10.26
2022-09-26T19:54:56.991Z,10.11
2022-09-26T20:00:03.365Z,10.34
2022-09-26T20:05:09.533Z,10.86
2022-09-26T20:10:16.862Z,10.44
2022-09-26T20:15:23.060Z,10.89
2022-09-26T20:20:29.306Z,10.98
2022-09-26T20:25:35.384Z,11.06
2022-09-26T20:30:41.666Z,11.24
2022-09-26T20:35:47.710Z,11.16
2022-09-26T20:40:54.030Z,10.39
2022-09-26T20:46:00.467Z,11.77
2022-09-26T20:51:09.554Z,12.00
2022-09-26T20:56:15.746Z,11.66
2022-09-26T21:01:22.028Z,12.38
2022-09-26T21:06:28.190Z,12.87
2022-09-26T21:11:34.404Z,12.07
2022-09-26T21:16:40.598Z,12.20
2022-09-26T21:21:46.971Z,11.89
2022-09-26T21:26:53.054Z,11.83
2022-09-26T21:31:59.246Z,12.15
2022-09-26T21:37:05.688Z,11.97
2022-09-26T21:42:11.949Z,11.55
2022-09-26T21:47:18.675Z,11.24
2022-09-26T21:52:25.003Z,11.73
2022-09-26T21:57:31.391Z,11.46
2022-09-26T22:02:37.706Z,12.03
2022-09-26T22:07:43.753Z,11.62
2022-09-26T22:12:50.287Z,12.01
2022-09-26T22:17:56.402Z,11.83
2022-09-26T22:23:02.655Z,11.46
2022-09-26T22:28:08.714Z,11.87
2022-09-26T22:33:14.867Z,11.95
2022-09-26T22:38:21.392Z,11.65
2022-09-26T22:43:27.554Z,12.03
2022-09-26T22:48:33.877Z,11.35
2022-09-26T22:53:40.189Z,11.02
2022-09-26T22:58:46.306Z,10.48
2022-09-26T23:03:52.740Z,9.91
2022-09-26T23:08:58.976Z,10.08
2022-09-26T23:14:07.293Z,9.93
2022-09-26T23:19:13.404Z,9.99
2022-09-26T23:24:19.819Z,10.08
2022-09-26T23:29:25.908Z,9.87
2022-09-26T23:34:32.218Z,9.60
2022-09-26T23:39:38.681Z,9.81
2022-09-26T23:44:45.019Z,9.99
2022-09-26T23:49:51.469Z,8.84
2022-09-26T23:54:57.661Z,9.72
